Time;durP1;ratioP1;P1;durP2;ratioP2;P2;SDS_P1;SDS_P2;PMS_P1;PMS_P2;Temp;Humidity;BMP_temperature;BMP_pressure;BME280_temperature;BME280_humidity;BME280_pressure;Samples;Min_cycle;Max_cycle;Signal;HPM_P1;HPM_P2
2021/09/02 00:07:22;;;;;;;3.28;1.58;;;;;;;;;;20907045;28;20049;-63
2021/09/02 00:17:24;;;;;;;3.22;1.80;;;;;;;;;;20905842;28;20128;-63
2021/09/02 00:27:27;;;;;;;2.45;1.50;;;;;;;;;;20905708;28;20105;-63
2021/09/02 00:37:29;;;;;;;3.45;1.70;;;;;;;;;;20905030;28;20053;-63
2021/09/02 00:47:31;;;;;;;5.25;1.83;;;;;;;;;;20904520;28;20455;-64
2021/09/02 00:57:34;;;;;;;3.40;1.90;;;;;;;;;;20886809;28;20045;-65
2021/09/02 01:07:36;;;;;;;;;;;;;;;;;;20903588;28;20059;-64
2021/09/02 01:17:45;;;;;;;5.93;1.90;;;;;;;;;;20902087;28;19944;-63
2021/09/02 01:27:49;;;;;;;3.55;1.88;;;;;;;;;;20901935;28;20053;-62
2021/09/02 01:37:55;;;;;;;3.03;2.03;;;;;;;;;;20900325;28;20128;-63
2021/09/02 01:48:03;;;;;;;3.70;2.00;;;;;;;;;;20900800;28;20084;-63
2021/09/02 01:58:11;;;;;;;3.88;2.15;;;;;;;;;;20900093;28;20400;-63
2021/09/02 02:08:25;;;;;;;5.40;2.10;;;;;;;;;;20899642;28;20060;-63
2021/09/02 02:18:30;;;;;;;4.63;2.22;;;;;;;;;;20881900;28;20500;-62
2021/09/02 02:28:34;;;;;;;6.70;2.50;;;;;;;;;;20899144;28;20044;-61
2021/09/02 02:38:39;;;;;;;5.15;3.25;;;;;;;;;;20898683;28;20059;-62
2021/09/02 02:48:42;;;;;;;5.63;2.42;;;;;;;;;;20910377;28;20472;-63
2021/09/02 02:58:47;;;;;;;5.47;2.33;;;;;;;;;;20911203;28;20045;-62
2021/09/02 03:08:51;;;;;;;3.55;2.35;;;;;;;;;;20909907;28;20056;-62
2021/09/02 03:18:56;;;;;;;3.38;2.08;;;;;;;;;;20909946;28;20049;-62
2021/09/02 03:28:59;;;;;;;5.82;2.30;;;;;;;;;;20909775;28;20053;-62
2021/09/02 03:39:02;;;;;;;3.97;2.40;;;;;;;;;;20908950;28;20398;-62
2021/09/02 03:49:05;;;;;;;3.67;2.30;;;;;;;;;;20907562;28;20354;-62
2021/09/02 03:59:09;;;;;;;3.70;2.05;;;;;;;;;;20906471;28;20056;-62
2021/09/02 04:09:12;;;;;;;6.30;2.37;;;;;;;;;;20906996;28;20172;-60
2021/09/02 04:19:15;;;;;;;;;;;;;;;;;;20907010;28;20049;-63
2021/09/02 04:29:17;;;;;;;3.80;2.28;;;;;;;;;;20905865;28;19927;-61
2021/09/02 04:39:19;;;;;;;3.95;2.80;;;;;;;;;;20904688;28;20049;-64
2021/09/02 04:49:22;;;;;;;3.07;2.50;;;;;;;;;;20905207;28;20044;-61
2021/09/02 04:59:24;;;;;;;5.15;2.15;;;;;;;;;;20903914;28;20053;-62
2021/09/02 05:09:27;;;;;;;4.97;2.93;;;;;;;;;;20901308;28;20125;-62
2021/09/02 05:19:30;;;;;;;5.55;3.28;;;;;;;;;;20902503;28;20893;-62
2021/09/02 05:29:34;;;;;;;3.95;2.53;;;;;;;;;;20902001;28;20445;-63
2021/09/02 05:39:39;;;;;;;6.80;2.92;;;;;;;;;;20901530;28;20477;-62
2021/09/02 05:49:42;;;;;;;;;;;;;;;;;;20901519;28;20443;-62
2021/09/02 05:59:44;;;;;;;5.85;4.60;;;;;;;;;;20899464;28;20328;-62
2021/09/02 06:09:46;;;;;;;10.85;4.85;;;;;;;;;;20899837;28;20057;-62
2021/09/02 06:19:59;;;;;;;7.80;4.07;;;;;;;;;;20906031;28;20120;-62
2021/09/02 06:30:01;;;;;;;11.10;5.30;;;;;;;;;;20913680;28;20053;-62
2021/09/02 06:40:04;;;;;;;10.38;6.20;;;;;;;;;;20912759;28;20450;-62
2021/09/02 06:50:12;;;;;;;10.68;7.57;;;;;;;;;;20912116;28;20114;-63
2021/09/02 07:00:18;;;;;;;8.05;6.20;;;;;;;;;;20911055;28;20084;-62
2021/09/02 07:10:21;;;;;;;10.45;7.00;;;;;;;;;;20910583;28;20493;-63
2021/09/02 07:20:27;;;;;;;15.00;8.48;;;21.20;68.70;;;;;;20909293;28;20449;-63
2021/09/02 07:30:30;;;;;;;11.05;9.65;;;20.30;72.80;;;;;;20908051;28;20400;-63
2021/09/02 07:40:33;;;;;;;14.10;10.93;;;20.30;73.00;;;;;;20907708;28;20512;-62
2021/09/02 07:50:35;;;;;;;13.63;11.87;;;20.60;71.80;;;;;;20907034;28;20056;-64
2021/09/02 08:00:40;;;;;;;15.80;13.02;;;20.80;71.10;;;;;;20907485;28;20461;-62
2021/09/02 08:10:45;;;;;;;21.42;17.10;;;21.10;70.90;;;;;;20906224;28;20442;-64
2021/09/02 08:20:47;;;;;;;;;;;21.30;70.70;;;;;;20906486;28;20049;-63
2021/09/02 08:30:49;;;;;;;22.05;19.00;;;21.40;68.80;;;;;;20905100;28;19931;-64
2021/09/02 08:40:51;;;;;;;23.10;17.63;;;21.50;69.30;;;;;;20904587;28;20553;-65
2021/09/02 08:50:53;;;;;;;9.38;6.70;;;21.90;67.20;;;;;;20899393;28;20067;-61
2021/09/02 09:00:56;;;;;;;21.15;17.27;;;22.10;65.00;;;;;;20820877;28;20057;-66
2021/09/02 09:11:20;;;;;;;31.30;27.88;;;22.40;65.10;;;;;;20819656;28;20050;-69
2021/09/02 09:21:22;;;;;;;17.10;12.18;;;22.90;62.90;;;;;;20819218;28;20056;-58
2021/09/02 09:31:31;;;;;;;14.45;12.32;;;23.20;61.50;;;;;;20823518;28;20573;-58
2021/09/02 09:41:38;;;;;;;15.57;12.20;;;23.60;59.30;;;;;;20853004;27;20060;-56
2021/09/02 09:51:43;;;;;;;14.02;11.10;;;24.10;58.60;;;;;;20861628;27;20044;-60
2021/09/02 10:01:47;;;;;;;11.57;9.02;;;23.90;58.20;;;;;;20874970;27;20093;-60
2021/09/02 10:11:49;;;;;;;15.75;10.13;;;24.10;58.20;;;;;;20963393;27;20124;-63
2021/09/02 10:21:58;;;;;;;14.57;9.27;;;24.10;56.60;;;;;;20802509;28;20510;-50
2021/09/02 10:32:24;;;;;;;14.98;9.95;;;24.10;56.80;;;;;;20939806;27;20049;-46
2021/09/02 10:42:49;;;;;;;12.15;8.40;;;24.10;56.40;;;;;;20911203;28;20132;-46
2021/09/02 10:52:54;;;;;;;12.27;7.18;;;24.00;56.20;;;;;;20910652;28;20041;-47
2021/09/02 11:03:21;;;;;;;9.73;8.05;;;24.10;56.30;;;;;;20911394;27;20152;-52
2021/09/02 11:13:32;;;;;;;11.68;7.07;;;24.60;54.90;;;;;;20910411;28;20067;-50
2021/09/02 11:23:35;;;;;;;8.75;5.55;;;24.70;53.60;;;;;;20909848;28;20140;-53
2021/09/02 11:33:49;;;;;;;12.40;6.28;;;24.90;52.90;;;;;;20890913;28;20052;-50
2021/09/02 11:43:54;;;;;;;9.60;6.05;;;25.10;52.30;;;;;;20908445;28;20045;-51
2021/09/02 11:54:09;;;;;;;6.90;5.35;;;25.20;52.20;;;;;;20906906;28;20160;-50
2021/09/02 12:04:18;;;;;;;9.77;5.10;;;25.60;49.30;;;;;;20907898;28;20378;-51
2021/09/02 12:14:23;;;;;;;6.45;5.55;;;25.60;48.90;;;;;;20904967;28;20131;-51
2021/09/02 12:24:32;;;;;;;6.35;4.28;;;25.80;49.50;;;;;;20905630;28;20057;-50
2021/09/02 12:34:33;;;;;;;6.53;4.68;;;26.20;45.80;;;;;;20905045;28;20072;-51
2021/09/02 12:44:38;;;;;;;7.40;6.38;;;26.10;46.40;;;;;;20886863;28;20084;-51
2021/09/02 12:55:05;;;;;;;5.63;4.45;;;26.50;46.70;;;;;;20903383;28;20485;-51
2021/09/02 13:05:09;;;;;;;5.28;4.15;;;26.60;46.40;;;;;;20902638;28;20053;-51
2021/09/02 13:15:18;;;;;;;5.88;3.70;;;26.80;45.20;;;;;;20902796;28;20045;-50
2021/09/02 13:25:21;;;;;;;9.13;4.13;;;27.10;44.70;;;;;;20900011;28;20580;-51
2021/09/02 13:35:24;;;;;;;5.78;2.80;;;27.20;44.40;;;;;;20903250;28;20048;-51
2021/09/02 13:45:31;;;;;;;6.75;3.70;;;27.40;43.10;;;;;;20901350;28;20386;-50
2021/09/02 13:55:33;;;;;;;4.45;3.53;;;27.20;44.60;;;;;;20900923;28;20049;-51
2021/09/02 14:05:36;;;;;;;5.10;3.17;;;27.10;45.60;;;;;;20899917;28;20474;-52
2021/09/02 14:15:37;;;;;;;7.82;4.20;;;26.90;48.10;;;;;;20898889;28;20053;-51
2021/09/02 14:25:39;;;;;;;11.60;5.40;;;26.60;51.60;;;;;;20898915;28;20485;-50
2021/09/02 14:35:44;;;;;;;7.70;3.15;;;25.60;57.60;;;;;;20898490;28;20053;-50
2021/09/02 14:45:45;;;;;;;6.45;3.67;;;25.00;59.70;;;;;;20911229;28;20053;-50
2021/09/02 14:55:48;;;;;;;4.75;2.90;;;24.70;62.20;;;;;;20910214;28;20049;-50
2021/09/02 15:05:51;;;;;;;5.10;2.00;;;24.90;57.80;;;;;;20909600;28;20109;-50
2021/09/02 15:15:55;;;;;;;3.35;2.60;;;24.90;55.50;;;;;;20910241;28;20045;-51
2021/09/02 15:25:59;;;;;;;3.45;2.67;;;24.90;55.30;;;;;;20892606;28;20537;-51
2021/09/02 15:36:01;;;;;;;3.97;2.75;;;24.90;54.40;;;;;;20909355;28;20129;-51
2021/09/02 15:46:02;;;;;;;4.75;2.40;;;25.10;53.10;;;;;;20908635;28;20053;-51
2021/09/02 15:56:04;;;;;;;4.90;2.83;;;25.60;52.30;;;;;;20907365;28;20045;-51
2021/09/02 16:06:07;;;;;;;5.53;3.38;;;25.80;51.20;;;;;;20907042;28;20064;-51
2021/09/02 16:16:12;;;;;;;6.65;3.83;;;25.90;49.90;;;;;;20906591;28;20053;-50
2021/09/02 16:26:18;;;;;;;3.47;2.40;;;26.10;48.90;;;;;;20905316;28;20045;-51
2021/09/02 16:36:20;;;;;;;3.67;1.95;;;26.20;47.30;;;;;;20905274;28;20049;-51
2021/09/02 16:46:24;;;;;;;4.05;2.25;;;26.20;47.70;;;;;;20904610;28;20045;-51
2021/09/02 16:56:26;;;;;;;6.25;3.10;;;26.10;48.20;;;;;;20904084;28;20101;-51
2021/09/02 17:06:28;;;;;;;7.45;2.53;;;25.90;48.30;;;;;;20903290;28;20053;-53
2021/09/02 17:16:31;;;;;;;3.22;2.25;;;26.00;47.70;;;;;;20902545;28;20082;-51
2021/09/02 17:26:37;;;;;;;6.32;2.97;;;25.80;48.20;;;;;;20902240;28;20135;-50
2021/09/02 17:36:39;;;;;;;4.65;2.83;;;25.70;48.40;;;;;;20884510;28;20049;-51
2021/09/02 17:46:42;;;;;;;5.10;2.63;;;25.60;48.60;;;;;;20901508;28;20137;-51
2021/09/02 17:56:46;;;;;;;5.05;2.80;;;25.40;48.80;;;;;;20900010;28;20202;-51
2021/09/02 18:06:48;;;;;;;4.45;2.40;;;25.30;48.90;;;;;;20899772;28;20061;-51
2021/09/02 18:16:52;;;;;;;3.97;2.55;;;25.00;49.00;;;;;;20908333;28;20124;-51
2021/09/02 18:26:54;;;;;;;;;;;24.70;49.40;;;;;;20914443;28;20081;-51
2021/09/02 18:36:57;;;;;;;4.47;2.03;;;24.40;50.80;;;;;;20913423;28;20293;-51
2021/09/02 18:47:01;;;;;;;3.05;2.70;;;24.10;53.20;;;;;;20912352;28;20059;-50
2021/09/02 18:57:06;;;;;;;4.85;2.50;;;23.70;54.00;;;;;;20911410;28;20064;-52
2021/09/02 19:07:15;;;;;;;3.90;2.65;;;23.60;53.70;;;;;;20910247;28;20061;-50
2021/09/02 19:17:17;;;;;;;2.85;2.17;;;23.40;54.10;;;;;;20910143;28;20082;-50
2021/09/02 19:27:19;;;;;;;4.40;2.13;;;23.20;53.00;;;;;;20908565;28;20076;-50
2021/09/02 19:37:24;;;;;;;6.70;2.50;;;23.00;52.30;;;;;;20908799;28;20061;-49
2021/09/02 19:47:30;;;;;;;5.47;2.65;;;23.10;51.40;;;;;;20875298;28;20094;-51
2021/09/02 19:57:51;;;;;;;;;;;23.10;51.40;;;;;;20890095;28;20049;-50
2021/09/02 20:07:55;;;;;;;4.20;2.67;;;22.90;51.70;;;;;;20910998;28;20119;-50
2021/09/02 20:18:00;;;;;;;4.07;2.25;;;22.90;52.40;;;;;;20910385;28;20072;-48
2021/09/02 20:28:07;;;;;;;4.57;3.45;;;22.70;52.90;;;;;;20909795;28;20048;-50
2021/09/02 20:38:12;;;;;;;;;;;22.70;53.70;;;;;;20908367;28;20084;-50
2021/09/02 20:48:26;;;;;;;4.50;2.30;;;22.60;54.10;;;;;;20904396;28;19927;-50
2021/09/02 20:58:30;;;;;;;3.20;2.40;;;22.60;55.50;;;;;;20903477;28;20133;-50
2021/09/02 21:08:37;;;;;;;5.97;2.78;;;22.50;56.50;;;;;;20903458;28;20489;-50
2021/09/02 21:18:40;;;;;;;4.13;2.60;;;22.30;57.30;;;;;;20902896;28;20049;-51
2021/09/02 21:29:02;;;;;;;6.80;3.35;;;22.20;57.80;;;;;;20902574;28;20060;-50
2021/09/02 21:39:03;;;;;;;5.05;2.80;;;22.30;58.40;;;;;;20901673;28;20056;-51
2021/09/02 21:49:07;;;;;;;7.40;2.90;;;22.00;59.80;;;;;;20900139;28;20158;-50
2021/09/02 21:59:09;;;;;;;6.03;2.85;;;22.00;60.20;;;;;;20900686;28;20401;-51
2021/09/02 22:09:12;;;;;;;5.35;2.83;;;21.90;60.90;;;;;;20899913;28;20144;-50
2021/09/02 22:19:33;;;;;;;4.75;2.97;;;21.90;61.50;;;;;;20882448;28;20041;-50
2021/09/02 22:29:38;;;;;;;5.25;2.92;;;21.80;61.90;;;;;;20899587;28;20101;-50
2021/09/02 22:39:41;;;;;;;6.75;3.70;;;21.80;62.20;;;;;;20898968;28;20074;-50
2021/09/02 22:49:47;;;;;;;5.10;3.25;;;21.60;62.70;;;;;;20898365;28;20053;-50
2021/09/02 22:59:50;;;;;;;7.32;4.05;;;21.70;62.80;;;;;;20901685;28;20068;-50
2021/09/02 23:10:41;;;;;;;5.20;4.00;;;21.60;63.30;;;;;;20911572;28;20053;-50
2021/09/02 23:20:43;;;;;;;9.15;4.70;;;21.70;62.80;;;;;;20888916;28;20052;-51
2021/09/02 23:30:45;;;;;;;5.80;3.47;;;21.60;63.90;;;;;;20898082;28;20151;-50
2021/09/02 23:40:47;;;;;;;7.60;4.05;;;21.50;64.40;;;;;;20897930;28;20476;-49
2021/09/02 23:50:51;;;;;;;5.70;3.67;;;21.50;64.70;;;;;;20911831;28;20049;-50
